createdAt,value
2023-05-17T00:03:34.734Z,76.09
2023-05-17T00:07:38.113Z,76.42
2023-05-17T00:11:41.559Z,76.04
2023-05-17T00:15:45.996Z,75.83
2023-05-17T00:19:49.215Z,75.95
2023-05-17T00:23:52.502Z,75.92
2023-05-17T00:27:56.107Z,76.02
2023-05-17T00:32:00.643Z,75.78
2023-05-17T00:36:04.156Z,75.89
2023-05-17T00:40:08.487Z,75.51
2023-05-17T00:44:11.896Z,75.36
2023-05-17T00:48:17.105Z,75.54
2023-05-17T00:52:20.723Z,75.42
2023-05-17T00:56:25.736Z,75.29
2023-05-17T01:00:29.467Z,75.24
2023-05-17T01:04:34.724Z,75.34
2023-05-17T01:08:38.346Z,75.25
2023-05-17T01:12:57.723Z,75.47
2023-05-17T01:17:04.350Z,75.08
2023-05-17T01:21:19.142Z,75.27
2023-05-17T01:25:40.971Z,75.39
2023-05-17T01:29:46.438Z,75.42
2023-05-17T01:33:49.628Z,75.36
2023-05-17T01:37:54.108Z,75.07
2023-05-17T01:42:05.077Z,75.07
2023-05-17T01:46:15.672Z,75.53
2023-05-17T01:50:23.337Z,75.07
2023-05-17T01:54:34.064Z,75.12
2023-05-17T01:58:46.698Z,75.45
2023-05-17T02:02:51.513Z,75.51
2023-05-17T02:06:54.526Z,75.35
2023-05-17T02:10:57.988Z,75.34
2023-05-17T02:15:01.045Z,75.52
2023-05-17T02:19:06.040Z,75.26
2023-05-17T02:23:09.207Z,75.33
2023-05-17T02:27:12.518Z,75.53
2023-05-17T02:31:15.795Z,75.50
2023-05-17T02:35:20.902Z,75.35
2023-05-17T02:39:24.424Z,75.46
2023-05-17T02:43:27.879Z,75.40
2023-05-17T02:47:31.107Z,75.52
2023-05-17T02:51:36.038Z,75.52
2023-05-17T02:55:39.276Z,75.60
2023-05-17T02:59:42.392Z,75.69
2023-05-17T03:03:45.564Z,75.74
2023-05-17T03:07:50.330Z,76.10
2023-05-17T03:11:53.443Z,75.89
2023-05-17T03:15:56.811Z,76.07
2023-05-17T03:19:59.807Z,75.88
2023-05-17T03:24:04.732Z,75.90
2023-05-17T03:28:07.958Z,76.14
2023-05-17T03:32:11.604Z,76.14
2023-05-17T03:36:14.972Z,76.18
2023-05-17T03:40:19.886Z,76.52
2023-05-17T03:44:22.805Z,76.52
2023-05-17T03:48:26.276Z,76.49
2023-05-17T03:52:29.458Z,76.82
2023-05-17T03:56:34.724Z,76.75
2023-05-17T04:00:38.080Z,76.91
2023-05-17T04:04:41.427Z,76.84
2023-05-17T04:08:44.614Z,76.74
2023-05-17T04:12:50.404Z,76.57
2023-05-17T04:16:53.467Z,76.55
2023-05-17T04:20:57.460Z,76.47
2023-05-17T04:25:00.482Z,76.72
2023-05-17T04:29:05.402Z,76.72
2023-05-17T04:33:10.500Z,76.78
2023-05-17T04:37:15.333Z,76.66
2023-05-17T04:41:18.491Z,76.47
2023-05-17T04:45:24.048Z,76.69
2023-05-17T04:49:27.124Z,76.63
2023-05-17T04:53:30.897Z,76.30
2023-05-17T04:57:34.091Z,76.39
2023-05-17T05:01:38.934Z,76.32
2023-05-17T05:05:41.882Z,76.23
2023-05-17T05:09:45.409Z,76.35
2023-05-17T05:13:48.343Z,76.37
2023-05-17T05:17:53.368Z,76.34
2023-05-17T05:21:56.558Z,75.85
2023-05-17T05:26:00.429Z,75.89
2023-05-17T05:30:04.323Z,75.93
2023-05-17T05:34:08.897Z,76.01
2023-05-17T05:38:11.989Z,76.00
2023-05-17T05:42:15.455Z,75.82
2023-05-17T05:46:18.707Z,75.19
2023-05-17T05:50:23.754Z,74.74
2023-05-17T05:54:27.217Z,73.82
2023-05-17T05:58:30.888Z,74.00
2023-05-17T06:02:35.310Z,74.01
2023-05-17T06:06:40.136Z,74.13
2023-05-17T06:10:43.577Z,74.36
2023-05-17T06:14:46.847Z,74.17
2023-05-17T06:18:51.623Z,73.92
2023-05-17T06:22:56.638Z,73.72
2023-05-17T06:27:00.561Z,73.79
2023-05-17T06:31:07.112Z,73.98
2023-05-17T06:35:11.955Z,74.44
2023-05-17T06:39:16.765Z,74.25
2023-05-17T06:43:20.058Z,73.84
2023-05-17T06:47:25.044Z,74.13
2023-05-17T06:51:30.397Z,73.64
2023-05-17T06:55:35.295Z,73.50
2023-05-17T06:59:38.962Z,74.23
2023-05-17T07:03:42.578Z,73.73
2023-05-17T07:07:46.029Z,73.80
2023-05-17T07:11:50.769Z,74.28
2023-05-17T07:15:54.937Z,73.76
2023-05-17T07:19:58.480Z,73.27
2023-05-17T07:24:01.719Z,73.77
2023-05-17T07:28:06.878Z,74.16
2023-05-17T07:32:10.592Z,73.58
2023-05-17T07:36:14.419Z,73.53
2023-05-17T07:40:18.289Z,73.28
2023-05-17T07:44:23.071Z,72.76
2023-05-17T07:48:27.133Z,73.47
2023-05-17T07:52:30.661Z,72.70
2023-05-17T07:56:34.104Z,73.03
2023-05-17T08:00:38.557Z,72.45
2023-05-17T08:04:42.295Z,72.16
2023-05-17T08:08:46.137Z,72.42
2023-05-17T08:12:49.434Z,71.23
2023-05-17T08:16:54.275Z,72.02
2023-05-17T08:20:57.784Z,71.27
2023-05-17T08:25:01.175Z,71.70
2023-05-17T08:29:04.892Z,70.97
2023-05-17T08:33:11.999Z,72.21
2023-05-17T08:37:15.255Z,71.40
2023-05-17T08:41:18.598Z,71.46
2023-05-17T08:45:22.755Z,71.74
2023-05-17T08:49:33.534Z,72.41
2023-05-17T08:53:37.159Z,71.61
2023-05-17T08:57:40.948Z,71.90
2023-05-17T09:01:46.505Z,71.91
2023-05-17T09:05:53.097Z,71.38
2023-05-17T09:09:56.787Z,71.87
2023-05-17T09:14:01.871Z,71.30
2023-05-17T09:18:05.338Z,71.36
2023-05-17T09:22:10.387Z,70.93
2023-05-17T09:26:16.352Z,71.74
2023-05-17T09:30:19.585Z,71.11
2023-05-17T09:34:24.087Z,68.81
2023-05-17T09:38:28.936Z,70.56
2023-05-17T09:42:34.722Z,69.13
2023-05-17T09:46:39.916Z,69.45
2023-05-17T09:50:47.825Z,67.08
2023-05-17T09:55:07.459Z,67.72
2023-05-17T09:59:14.006Z,66.20
2023-05-17T10:03:18.826Z,68.48
2023-05-17T10:07:22.652Z,66.34
2023-05-17T10:11:34.714Z,66.69
2023-05-17T10:15:39.256Z,65.98
2023-05-17T10:19:43.059Z,65.75
2023-05-17T10:23:48.035Z,64.51
2023-05-17T10:27:53.491Z,64.61
2023-05-17T10:31:58.337Z,65.45
2023-05-17T10:36:03.703Z,66.34
2023-05-17T10:40:13.687Z,65.99
2023-05-17T10:44:19.242Z,66.67
2023-05-17T10:48:24.107Z,67.25
2023-05-17T10:52:27.666Z,64.37
2023-05-17T10:56:31.997Z,66.37
2023-05-17T11:00:41.205Z,66.65
2023-05-17T11:04:46.380Z,66.77
2023-05-17T11:09:15.506Z,65.48
2023-05-17T11:13:28.251Z,64.51
2023-05-17T11:17:50.027Z,63.72
2023-05-17T11:21:53.643Z,64.85
2023-05-17T11:26:02.908Z,64.81
2023-05-17T11:30:11.514Z,65.01
2023-05-17T11:34:19.533Z,66.30
2023-05-17T11:38:26.369Z,64.50
2023-05-17T11:42:29.652Z,65.29
2023-05-17T11:46:36.099Z,64.52
2023-05-17T11:50:41.299Z,65.05
2023-05-17T11:54:45.202Z,62.95
2023-05-17T11:58:53.048Z,63.85
2023-05-17T12:02:58.168Z,64.05
2023-05-17T12:07:03.135Z,63.56
2023-05-17T12:11:07.668Z,64.19
2023-05-17T12:15:14.660Z,64.29
2023-05-17T12:19:22.726Z,64.95
2023-05-17T12:23:33.824Z,65.70
2023-05-17T12:27:37.733Z,64.17
2023-05-17T12:31:43.382Z,60.98
2023-05-17T12:35:48.730Z,62.25
2023-05-17T12:39:53.277Z,62.17
2023-05-17T12:44:13.646Z,61.43
2023-05-17T12:48:19.509Z,60.84
2023-05-17T12:52:24.355Z,61.71
2023-05-17T12:56:30.981Z,62.55
2023-05-17T13:00:34.735Z,61.76
2023-05-17T13:04:38.924Z,61.80
2023-05-17T13:08:44.149Z,59.71
2023-05-17T13:12:57.895Z,62.69
2023-05-17T13:17:01.669Z,61.82
2023-05-17T13:21:04.725Z,59.12
2023-05-17T13:25:08.238Z,60.96
2023-05-17T13:29:15.452Z,61.40
2023-05-17T13:33:19.072Z,59.16
2023-05-17T13:37:22.452Z,61.50
2023-05-17T13:41:25.540Z,60.82
2023-05-17T13:45:30.192Z,62.39
2023-05-17T13:49:33.526Z,61.63
2023-05-17T13:53:39.137Z,60.31
2023-05-17T13:57:42.946Z,62.75
2023-05-17T14:01:47.884Z,61.79
2023-05-17T14:05:53.344Z,62.15
2023-05-17T14:09:56.951Z,61.85
2023-05-17T14:14:01.721Z,61.49
2023-05-17T14:18:07.930Z,60.38
2023-05-17T14:22:11.858Z,59.51
2023-05-17T14:26:14.805Z,61.12
2023-05-17T14:30:18.219Z,59.52
2023-05-17T14:34:22.869Z,58.88
2023-05-17T14:38:35.936Z,60.32
2023-05-17T14:42:41.901Z,60.35
2023-05-17T14:46:45.362Z,60.55
2023-05-17T14:50:49.664Z,59.92
2023-05-17T14:54:53.668Z,60.25
2023-05-17T14:58:57.905Z,61.11
2023-05-17T15:03:01.827Z,61.08
2023-05-17T15:07:07.697Z,62.18
2023-05-17T15:11:11.362Z,63.49
2023-05-17T15:15:14.927Z,62.67
2023-05-17T15:19:18.822Z,63.89
2023-05-17T15:23:23.460Z,63.00
2023-05-17T15:27:35.880Z,63.49
2023-05-17T15:31:39.397Z,63.41
2023-05-17T15:35:44.430Z,64.42
2023-05-17T15:39:49.298Z,64.95
2023-05-17T15:43:54.030Z,63.71
2023-05-17T15:47:57.573Z,64.00
2023-05-17T15:52:00.999Z,63.88
2023-05-17T15:56:06.664Z,64.76
2023-05-17T16:00:11.528Z,64.02
2023-05-17T16:04:15.077Z,65.56
2023-05-17T16:08:20.730Z,64.02
2023-05-17T16:12:28.706Z,64.02
2023-05-17T16:16:32.674Z,64.30
2023-05-17T16:20:35.792Z,63.80
2023-05-17T16:24:39.254Z,64.39
2023-05-17T16:28:44.293Z,64.59
2023-05-17T16:32:48.468Z,64.49
2023-05-17T16:36:51.671Z,65.31
2023-05-17T16:40:55.282Z,64.93
2023-05-17T16:45:00.373Z,64.98
2023-05-17T16:49:07.596Z,65.13
2023-05-17T16:53:10.909Z,65.56
2023-05-17T16:57:15.025Z,65.43
2023-05-17T17:01:21.544Z,65.99
2023-05-17T17:05:24.978Z,65.94
2023-05-17T17:09:30.137Z,65.90
2023-05-17T17:13:33.572Z,65.66
2023-05-17T17:17:39.461Z,66.56
2023-05-17T17:21:44.057Z,66.38
2023-05-17T17:25:48.622Z,66.64
2023-05-17T17:29:52.413Z,67.51
2023-05-17T17:33:58.400Z,67.79
2023-05-17T17:38:03.481Z,68.21
2023-05-17T17:42:07.388Z,68.06
2023-05-17T17:46:11.035Z,68.65
2023-05-17T17:50:16.676Z,68.67
2023-05-17T17:54:20.272Z,69.11
2023-05-17T17:58:29.116Z,69.31
2023-05-17T18:02:32.555Z,69.43
2023-05-17T18:06:37.744Z,69.60
2023-05-17T18:10:42.436Z,69.79
2023-05-17T18:14:46.744Z,70.51
2023-05-17T18:18:50.228Z,70.73
2023-05-17T18:22:55.111Z,70.90
2023-05-17T18:26:58.637Z,70.90
2023-05-17T18:31:01.657Z,70.71
2023-05-17T18:35:05.437Z,71.13
2023-05-17T18:39:12.422Z,71.47
2023-05-17T18:43:16.250Z,71.52
2023-05-17T18:47:20.168Z,71.70
2023-05-17T18:51:23.520Z,71.87
2023-05-17T18:55:28.651Z,71.96
2023-05-17T18:59:32.030Z,72.66
2023-05-17T19:03:35.879Z,72.85
2023-05-17T19:07:44.647Z,72.96
2023-05-17T19:11:50.030Z,73.12
2023-05-17T19:15:55.113Z,73.26
2023-05-17T19:19:58.071Z,73.38
2023-05-17T19:24:02.453Z,73.56
2023-05-17T19:28:07.410Z,73.67
2023-05-17T19:32:10.803Z,73.86
2023-05-17T19:36:15.953Z,74.38
2023-05-17T19:40:24.060Z,74.61
2023-05-17T19:44:28.602Z,74.67
2023-05-17T19:48:32.144Z,74.78
2023-05-17T19:52:37.517Z,75.02
2023-05-17T19:56:42.089Z,74.80
2023-05-17T20:00:46.633Z,75.01
2023-05-17T20:04:49.805Z,75.23
2023-05-17T20:08:53.074Z,75.15
2023-05-17T20:12:56.548Z,75.46
2023-05-17T20:17:01.825Z,75.26
2023-05-17T20:21:05.323Z,75.71
2023-05-17T20:25:10.299Z,75.75
2023-05-17T20:29:13.953Z,75.59
2023-05-17T20:33:22.631Z,75.54
2023-05-17T20:37:26.529Z,75.52
2023-05-17T20:41:29.909Z,75.74
2023-05-17T20:45:34.433Z,75.23
2023-05-17T20:49:39.258Z,75.20
2023-05-17T20:53:43.042Z,75.09
2023-05-17T20:57:47.118Z,75.19
2023-05-17T21:01:52.843Z,74.91
2023-05-17T21:05:58.150Z,74.98
2023-05-17T21:10:01.369Z,74.84
2023-05-17T21:14:04.473Z,75.01
2023-05-17T21:18:08.569Z,74.88
2023-05-17T21:22:13.297Z,74.92
2023-05-17T21:26:17.062Z,74.56
2023-05-17T21:30:20.871Z,74.73
2023-05-17T21:34:25.648Z,74.83
2023-05-17T21:38:31.573Z,74.63
2023-05-17T21:42:35.344Z,74.65
2023-05-17T21:46:38.549Z,74.70
2023-05-17T21:50:41.719Z,74.74
2023-05-17T21:54:46.743Z,74.44
2023-05-17T21:58:50.156Z,74.04
2023-05-17T22:02:53.576Z,74.03
2023-05-17T22:06:57.735Z,74.54
2023-05-17T22:11:02.513Z,74.83
2023-05-17T22:15:07.700Z,74.75
2023-05-17T22:19:11.300Z,74.82
2023-05-17T22:23:15.984Z,74.89
2023-05-17T22:27:21.111Z,74.91
2023-05-17T22:31:25.303Z,74.66
2023-05-17T22:35:28.566Z,74.77
2023-05-17T22:39:33.303Z,74.59
2023-05-17T22:43:38.266Z,74.50
2023-05-17T22:47:42.898Z,74.43
2023-05-17T22:51:47.088Z,74.21
2023-05-17T22:55:50.796Z,74.33
2023-05-17T22:59:55.868Z,74.45
2023-05-17T23:03:59.096Z,74.29
2023-05-17T23:08:02.500Z,74.35
2023-05-17T23:12:07.175Z,74.29
2023-05-17T23:16:14.190Z,74.24
2023-05-17T23:20:18.229Z,74.20
2023-05-17T23:24:23.532Z,74.16
2023-05-17T23:28:27.106Z,74.22
2023-05-17T23:32:34.417Z,74.23
2023-05-17T23:36:37.922Z,74.19
2023-05-17T23:44:57.566Z,74.41
2023-05-17T23:49:04.599Z,74.73
2023-05-17T23:53:09.937Z,74.59
2023-05-17T23:57:13.632Z,75.00
